Time;durP1;ratioP1;P1;durP2;ratioP2;P2;SDS_P1;SDS_P2;PMS_P1;PMS_P2;Temp;Humidity;BMP_temperature;BMP_pressure;BME280_temperature;BME280_humidity;BME280_pressure;Samples;Min_cycle;Max_cycle;Signal;HPM_P1;HPM_P2
2021/12/13 00:01:02;;;;;;;29.67;13.85;;;;;;;1.70;60.59;100804.59;3360942;29;20554;-70
2021/12/13 00:03:01;;;;;;;34.42;14.07;;;;;;;1.71;60.47;100814.16;3350460;29;20049;-70
2021/12/13 00:04:56;;;;;;;32.67;14.15;;;;;;;1.70;60.53;100786.22;3348370;29;20042;-71
2021/12/13 00:06:51;;;;;;;27.83;12.65;;;;;;;1.69;60.54;100797.66;3334584;29;20046;-70
2021/12/13 00:08:36;;;;;;;25.30;12.80;;;;;;;1.65;60.38;100797.97;3345755;29;20473;-71
2021/12/13 00:10:21;;;;;;;28.95;13.90;;;;;;;1.62;60.79;100793.78;3349718;29;20102;-71
2021/12/13 00:12:04;;;;;;;27.27;12.93;;;;;;;1.60;60.71;100794.84;3349793;29;20037;-72
2021/12/13 00:13:58;;;;;;;28.17;12.00;;;;;;;1.66;60.90;100792.63;3361223;29;20122;-70
2021/12/13 00:15:46;;;;;;;31.98;14.93;;;;;;;1.67;60.71;100793.47;3361763;29;20036;-71
2021/12/13 00:17:29;;;;;;;32.88;15.38;;;;;;;1.70;60.52;100793.22;3350448;29;20037;-71
2021/12/13 00:19:20;;;;;;;31.73;13.75;;;;;;;1.75;60.48;100797.19;3361262;29;20040;-71
2021/12/13 00:21:13;;;;;;;30.52;13.85;;;;;;;1.78;60.25;100790.88;3361330;29;20052;-71
2021/12/13 00:22:58;;;;;;;32.17;13.02;;;;;;;1.75;60.40;100794.56;3338903;29;20041;-72
2021/12/13 00:24:41;;;;;;;31.08;13.30;;;;;;;1.77;60.42;100796.28;3349794;29;20061;-71
2021/12/13 00:26:29;;;;;;;31.60;13.55;;;;;;;1.81;60.54;100805.59;3349664;29;20037;-71
2021/12/13 00:28:15;;;;;;;30.40;14.38;;;;;;;1.82;60.29;100797.63;3348187;29;20052;-71
2021/12/13 00:30:11;;;;;;;31.85;14.20;;;;;;;1.88;60.20;100810.31;3349729;29;20069;-70
2021/12/13 00:32:11;;;;;;;33.50;15.52;;;;;;;1.98;59.98;100810.47;3342671;29;20033;-70
2021/12/13 00:34:09;;;;;;;31.75;13.13;;;;;;;1.99;59.76;100801.66;3343874;29;20185;-71
2021/12/13 00:35:55;;;;;;;32.42;12.73;;;;;;;2.04;59.52;100806.56;3348688;29;20086;-70
2021/12/13 00:37:45;;;;;;;28.20;13.15;;;;;;;2.06;59.51;100804.66;3361727;29;20393;-71
2021/12/13 00:39:27;;;;;;;28.75;12.73;;;;;;;2.07;59.55;100809.00;3350564;29;20062;-71
2021/12/13 00:41:09;;;;;;;;;;;;;;;2.17;59.03;100815.25;3350372;29;20041;-70
2021/12/13 00:43:03;;;;;;;27.88;12.63;;;;;;;2.13;59.15;100814.63;3349665;29;19947;-71
2021/12/13 00:44:47;;;;;;;25.25;12.27;;;;;;;2.06;59.26;100812.56;3349595;29;20089;-70
2021/12/13 00:46:30;;;;;;;22.33;10.00;;;;;;;2.03;59.23;100813.63;3348708;29;20078;-71
2021/12/13 00:48:11;;;;;;;23.20;10.77;;;;;;;1.99;59.56;100817.44;3349684;29;20049;-71
2021/12/13 00:50:01;;;;;;;22.90;10.82;;;;;;;1.98;59.69;100809.66;3349352;29;20047;-71
2021/12/13 00:51:49;;;;;;;19.38;9.98;;;;;;;1.95;59.61;100810.72;3349469;29;20074;-72
2021/12/13 00:53:36;;;;;;;25.13;11.23;;;;;;;1.94;59.51;100803.78;3349167;29;20041;-72
2021/12/13 00:55:21;;;;;;;24.30;9.45;;;;;;;1.94;59.74;100809.03;3349286;29;20462;-71
2021/12/13 00:57:12;;;;;;;25.48;11.75;;;;;;;1.94;59.70;100809.88;3349033;29;20052;-71
2021/12/13 00:58:53;;;;;;;22.65;10.18;;;;;;;1.91;59.47;100799.59;3349133;29;20037;-70
2021/12/13 01:00:39;;;;;;;25.02;11.05;;;;;;;1.97;59.35;100803.56;3361165;29;20037;-70
2021/12/13 01:02:26;;;;;;;26.90;11.70;;;;;;;2.02;59.54;100801.44;3350910;29;20064;-70
2021/12/13 01:04:13;;;;;;;23.20;10.77;;;;;;;2.05;59.12;100806.47;3348678;29;20049;-71
2021/12/13 01:06:34;;;;;;;20.55;10.75;;;;;;;2.10;59.37;100804.34;3361253;29;20045;-73
2021/12/13 01:08:48;;;;;;;23.83;11.15;;;;;;;2.12;59.14;100794.56;3349034;29;20050;-71
2021/12/13 01:10:39;;;;;;;21.40;10.50;;;;;;;2.11;59.11;100784.13;3360637;29;20579;-71
2021/12/13 01:12:23;;;;;;;26.52;10.43;;;;;;;2.09;59.20;100784.25;3360934;29;20049;-72
2021/12/13 01:14:18;;;;;;;22.33;10.23;;;;;;;2.11;58.93;100784.97;3350559;29;20034;-71
2021/12/13 01:16:33;;;;;;;23.55;11.32;;;;;;;2.17;58.92;100794.22;3337989;29;20077;-70
2021/12/13 01:18:24;;;;;;;20.98;10.25;;;;;;;2.18;58.76;100780.94;3345670;29;20042;-70
2021/12/13 01:20:42;;;;;;;21.40;10.07;;;;;;;2.25;58.66;100785.75;3347969;29;20076;-70
2021/12/13 01:22:45;;;;;;;23.17;11.90;;;;;;;2.27;58.47;100783.84;3346777;29;20049;-71
2021/12/13 01:25:19;;;;;;;21.55;9.25;;;;;;;2.27;58.39;100783.84;3349069;29;20041;-71
2021/12/13 01:26:39;;;;;;;21.25;9.55;;;;;;;2.29;58.42;100792.47;3359894;29;20045;-70
2021/12/13 01:28:26;;;;;;;18.92;9.38;;;;;;;2.30;58.51;100788.88;3350550;29;20064;-71
2021/12/13 01:30:21;;;;;;;26.02;10.63;;;;;;;2.36;58.44;100796.31;3351014;29;20465;-71
2021/12/13 01:32:06;;;;;;;23.10;10.45;;;;;;;2.37;58.39;100790.09;3351965;29;20045;-71
2021/12/13 01:33:47;;;;;;;22.80;9.90;;;;;;;2.39;58.39;100794.28;3345263;29;20042;-72
2021/12/13 01:35:35;;;;;;;22.45;10.57;;;;;;;2.43;58.23;100794.91;3351427;29;20049;-71
2021/12/13 01:37:17;;;;;;;18.83;10.05;;;;;;;2.46;58.07;100797.31;3363075;29;20132;-71
2021/12/13 01:39:06;;;;;;;19.23;9.15;;;;;;;2.49;57.92;100788.34;3353518;29;20043;-71
2021/12/13 01:40:51;;;;;;;22.35;10.98;;;;;;;2.52;57.99;100796.84;3338009;29;20088;-72
2021/12/13 01:42:32;;;;;;;18.60;9.63;;;;;;;2.55;57.55;100791.34;3351421;29;20073;-72
2021/12/13 01:44:25;;;;;;;20.75;10.23;;;;;;;2.57;57.74;100794.69;3363092;29;20077;-72
2021/12/13 01:46:06;;;;;;;16.65;8.73;;;;;;;2.60;57.79;100786.56;3352273;29;20157;-72
2021/12/13 01:47:47;;;;;;;23.50;10.43;;;;;;;2.60;57.54;100786.56;3351249;29;20037;-72
2021/12/13 01:49:33;;;;;;;23.52;9.93;;;;;;;2.58;57.59;100787.63;3350913;29;20128;-71
2021/12/13 01:51:19;;;;;;;24.77;10.00;;;;;;;2.56;57.64;100779.03;3351495;29;20073;-71
2021/12/13 01:53:00;;;;;;;18.30;10.30;;;;;;;2.55;57.73;100788.69;3351620;29;20140;-72
2021/12/13 01:54:41;;;;;;;24.42;10.70;;;;;;;2.54;57.65;100784.41;3351349;29;20041;-72
2021/12/13 01:56:53;;;;;;;24.33;10.95;;;;;;;2.59;57.90;100799.84;3351364;29;20509;-70
2021/12/13 01:58:41;;;;;;;22.30;9.60;;;;;;;2.60;57.63;100791.81;3349462;29;20048;-72
2021/12/13 02:00:44;;;;;;;23.00;9.48;;;;;;;2.61;57.64;100793.53;3362984;29;20551;-71
2021/12/13 02:02:35;;;;;;;25.50;10.18;;;;;;;2.58;57.65;100788.50;3351351;29;21903;-71
2021/12/13 02:04:16;;;;;;;25.58;9.48;;;;;;;2.53;57.68;100785.38;3350948;29;20045;-71
2021/12/13 02:05:57;;;;;;;20.98;9.18;;;;;;;2.49;57.85;100789.19;3351308;29;20097;-71
2021/12/13 02:07:48;;;;;;;22.85;10.32;;;;;;;2.42;58.10;100785.31;3350326;29;20037;-72
2021/12/13 02:09:35;;;;;;;19.02;8.88;;;;;;;2.40;58.32;100784.59;3348356;29;20106;-71
2021/12/13 02:11:16;;;;;;;18.40;9.32;;;;;;;2.38;58.09;100776.00;3346712;29;20535;-72
2021/12/13 02:13:03;;;;;;;20.80;9.27;;;;;;;2.38;57.94;100776.00;3332718;29;20038;-72
2021/12/13 02:16:56;;;;;;;17.60;7.15;;;;;;;2.40;57.96;100779.31;3351015;29;20129;-71
2021/12/13 02:17:10;;;;;;;21.38;9.32;;;;;;;2.37;58.39;100774.31;3361831;29;20480;-71
2021/12/13 02:18:55;;;;;;;24.98;8.32;;;;;;;2.33;58.13;100771.06;3345427;29;20037;-71
2021/12/13 02:20:39;;;;;;;16.50;6.97;;;;;;;2.32;57.98;100776.44;3350980;29;20416;-71
2021/12/13 02:22:46;;;;;;;17.52;7.68;;;;;;;2.34;58.25;100767.47;3348781;29;20045;-71
2021/12/13 02:24:27;;;;;;;16.52;7.15;;;;;;;2.30;58.08;100760.78;3338135;29;20045;-71
2021/12/13 02:26:09;;;;;;;17.60;7.30;;;;;;;2.32;58.18;100760.66;3337220;29;20042;-72
2021/12/13 02:27:52;;;;;;;;;;;;;;;2.44;57.76;100764.19;3338525;29;20410;-71
2021/12/13 02:29:37;;;;;;;18.55;8.23;;;;;;;2.40;57.76;100759.16;3361165;29;19919;-73
2021/12/13 02:31:21;;;;;;;16.58;7.75;;;;;;;2.41;57.79;100749.47;3349861;29;20434;-72
2021/12/13 02:33:05;;;;;;;14.57;7.10;;;;;;;2.43;57.91;100746.69;3350825;29;20041;-72
2021/12/13 02:34:46;;;;;;;15.05;7.95;;;;;;;2.47;57.69;100753.41;3344285;29;20630;-71
2021/12/13 02:36:31;;;;;;;16.33;8.18;;;;;;;2.48;57.82;100741.91;3350574;29;20810;-71
2021/12/13 02:38:13;;;;;;;13.60;7.03;;;;;;;2.48;57.69;100745.41;3351011;29;20045;-72
2021/12/13 02:39:58;;;;;;;15.43;7.35;;;;;;;2.50;57.62;100746.13;3350610;29;20053;-72
2021/12/13 02:41:40;;;;;;;17.55;8.00;;;;;;;2.52;57.61;100746.84;3350878;29;20045;-72
2021/12/13 02:43:25;;;;;;;16.50;7.63;;;;;;;2.52;57.57;100746.84;3350954;29;20393;-71
2021/12/13 02:45:15;;;;;;;16.58;7.38;;;;;;;2.53;57.66;100753.78;3350998;29;20045;-71
2021/12/13 02:46:59;;;;;;;16.77;8.32;;;;;;;2.55;57.51;100761.56;3350838;29;20053;-71
2021/12/13 02:48:48;;;;;;;13.40;7.15;;;;;;;2.54;57.76;100758.09;3350300;29;20402;-70
2021/12/13 02:50:42;;;;;;;18.42;7.25;;;;;;;2.54;57.50;100763.34;3350698;29;20048;-72
2021/12/13 02:52:24;;;;;;;17.35;7.20;;;;;;;2.50;57.48;100763.69;3350728;29;20566;-71
2021/12/13 02:54:21;;;;;;;18.85;7.50;;;;;;;2.48;57.76;100750.69;3350130;29;20054;-72
2021/12/13 02:56:03;;;;;;;15.85;6.20;;;;;;;2.38;57.77;100740.00;3349980;29;20042;-72
2021/12/13 02:57:46;;;;;;;;;;;;;;;2.49;57.50;100747.09;3349115;29;20438;-70
2021/12/13 02:59:29;;;;;;;15.20;7.25;;;;;;;2.40;57.59;100746.00;3359554;29;20447;-71
2021/12/13 03:01:34;;;;;;;12.57;6.15;;;;;;;2.46;57.63;100752.56;3352602;29;20064;-71
2021/12/13 03:03:21;;;;;;;12.60;6.72;;;;;;;2.47;57.50;100756.03;3350203;29;20073;-72
2021/12/13 03:05:14;;;;;;;14.07;6.78;;;;;;;2.52;57.48;100751.28;3350476;29;20049;-72
2021/12/13 03:07:06;;;;;;;14.68;7.82;;;;;;;2.55;57.32;100757.13;3342014;29;20071;-72
2021/12/13 03:08:59;;;;;;;14.68;7.35;;;;;;;2.59;57.42;100752.50;3344013;29;20152;-71
2021/12/13 03:10:49;;;;;;;12.55;7.07;;;;;;;2.55;57.47;100740.50;3350450;29;20125;-72
2021/12/13 03:12:30;;;;;;;17.15;8.57;;;;;;;2.57;57.40;100744.69;3350405;29;20049;-71
2021/12/13 03:14:31;;;;;;;15.43;7.50;;;;;;;2.62;57.65;100739.91;3350593;29;20037;-70
2021/12/13 03:16:18;;;;;;;15.45;6.85;;;;;;;2.59;57.73;100731.44;3350076;29;20052;-72
2021/12/13 03:18:06;;;;;;;19.02;8.23;;;;;;;2.62;57.48;100720.66;3349589;29;20056;-72
2021/12/13 03:20:43;;;;;;;15.52;7.45;;;;;;;2.66;57.47;100719.50;3347290;29;20047;-71
2021/12/13 03:22:43;;;;;;;20.13;8.00;;;;;;;2.71;57.21;100722.59;3346575;29;21476;-71
2021/12/13 03:25:02;;;;;;;16.67;7.07;;;;;;;2.72;57.19;100719.00;3349392;29;20089;-72
2021/12/13 03:26:50;;;;;;;13.13;7.05;;;;;;;2.72;57.14;100713.75;3342731;29;20142;-71
2021/12/13 03:28:39;;;;;;;14.93;7.13;;;;;;;2.72;57.16;100711.09;3350076;29;20037;-71
2021/12/13 03:30:29;;;;;;;15.30;7.63;;;;;;;2.73;57.15;100709.31;3361737;29;20429;-72
2021/12/13 03:32:13;;;;;;;15.85;7.95;;;;;;;2.75;57.02;100723.19;3351249;29;20045;-72
2021/12/13 03:34:00;;;;;;;14.80;7.30;;;;;;;2.76;57.17;100727.50;3362310;29;20639;-72
2021/12/13 03:35:46;;;;;;;18.38;8.30;;;;;;;2.78;57.17;100717.69;3352099;29;20041;-73
2021/12/13 03:37:26;;;;;;;16.25;7.93;;;;;;;2.79;56.98;100716.75;3361701;29;20063;-73
2021/12/13 03:39:09;;;;;;;14.85;8.10;;;;;;;2.80;57.25;100726.31;3352488;29;20053;-73
2021/12/13 03:40:50;;;;;;;16.00;7.95;;;;;;;2.83;57.00;100723.44;3350343;29;20080;-73
2021/12/13 03:42:37;;;;;;;16.77;8.27;;;;;;;2.83;57.10;100723.44;3361883;29;20064;-72
2021/12/13 03:44:24;;;;;;;15.25;7.45;;;;;;;2.85;57.16;100724.16;3351685;29;20497;-73
2021/12/13 03:46:08;;;;;;;13.88;6.90;;;;;;;2.85;56.91;100726.78;3349439;29;20045;-74
2021/12/13 03:47:52;;;;;;;16.52;9.52;;;;;;;2.79;57.06;100712.31;3350323;29;20041;-73
2021/12/13 03:49:36;;;;;;;13.85;7.35;;;;;;;2.84;57.13;100719.88;3349970;29;20065;-72
2021/12/13 03:51:21;;;;;;;17.38;9.27;;;;;;;2.83;57.12;100718.16;3349625;29;20045;-73
2021/12/13 03:53:07;;;;;;;16.52;7.63;;;;;;;2.83;57.20;100715.53;3349425;29;20051;-73
2021/12/13 03:54:50;;;;;;;21.40;10.35;;;;;;;2.83;57.24;100713.72;3336734;29;20673;-72
2021/12/13 03:56:38;;;;;;;17.58;8.80;;;;;;;2.85;57.18;100716.25;3349315;29;20044;-72
2021/12/13 03:58:21;;;;;;;19.58;8.40;;;;;;;2.87;57.07;100713.53;3349513;29;20045;-73
2021/12/13 04:00:04;;;;;;;17.35;8.02;;;;;;;2.87;57.12;100714.34;3349839;29;20453;-73
2021/12/13 04:01:49;;;;;;;17.60;8.32;;;;;;;2.85;57.24;100705.72;3342296;29;20078;-71
2021/12/13 04:03:31;;;;;;;25.17;9.35;;;;;;;2.85;56.91;100700.47;3349544;29;20042;-71
2021/12/13 04:05:13;;;;;;;;;;;;;;;2.96;57.04;100703.09;3350086;29;20049;-71
2021/12/13 04:06:58;;;;;;;17.25;8.70;;;;;;;2.90;57.04;100695.69;3349459;29;19963;-72
2021/12/13 04:08:39;;;;;;;16.27;8.15;;;;;;;2.88;56.98;100694.13;3348729;29;20098;-71
2021/12/13 04:10:23;;;;;;;23.42;8.80;;;;;;;2.86;56.99;100702.13;3349692;29;20057;-70
2021/12/13 04:12:06;;;;;;;19.70;9.43;;;;;;;2.86;57.21;100701.28;3349510;29;20037;-70
2021/12/13 04:13:56;;;;;;;16.17;7.43;;;;;;;2.86;57.37;100694.22;3336498;29;20440;-72
2021/12/13 04:17:44;;;;;;;14.38;8.13;;;;;;;2.83;57.22;100695.31;3347895;29;20572;-71
2021/12/13 04:19:25;;;;;;;16.98;9.23;;;;;;;2.81;57.13;100699.88;3349861;29;20094;-71
2021/12/13 04:21:06;;;;;;;19.08;7.88;;;;;;;2.80;57.33;100697.34;3361108;29;20045;-72
2021/12/13 04:22:55;;;;;;;20.65;9.38;;;;;;;2.81;57.36;100689.34;3352004;29;20045;-71
2021/12/13 04:24:43;;;;;;;18.50;9.45;;;;;;;2.79;57.48;100698.31;3349587;29;20128;-71
2021/12/13 04:26:26;;;;;;;21.30;8.27;;;;;;;2.78;57.43;100701.91;3349069;29;20049;-72
2021/12/13 04:28:11;;;;;;;21.52;9.80;;;;;;;2.77;57.38;100689.69;3349598;29;20048;-71
2021/12/13 04:30:04;;;;;;;20.83;9.48;;;;;;;2.79;57.36;100695.69;3350157;29;20190;-71
2021/12/13 04:31:45;;;;;;;21.10;8.30;;;;;;;2.80;57.34;100681.56;3335774;29;20101;-71
2021/12/13 04:33:26;;;;;;;25.38;10.30;;;;;;;2.79;57.55;100693.06;3349613;29;20037;-72
2021/12/13 04:35:09;;;;;;;20.98;9.38;;;;;;;2.75;57.53;100694.25;3349752;29;20148;-71
2021/12/13 04:36:57;;;;;;;17.50;7.95;;;;;;;2.71;57.60;100695.41;3350871;29;20041;-71
2021/12/13 04:38:57;;;;;;;18.60;8.85;;;;;;;2.73;57.83;100698.78;3355288;29;20064;-73
2021/12/13 04:40:40;;;;;;;17.33;9.23;;;;;;;2.68;57.86;100700.94;3349467;29;20064;-72
2021/12/13 04:42:22;;;;;;;22.55;9.02;;;;;;;2.65;57.80;100694.09;3349225;29;20045;-72
2021/12/13 04:44:11;;;;;;;18.23;8.52;;;;;;;2.65;57.86;100698.53;3349513;29;20037;-71
2021/12/13 04:45:58;;;;;;;16.15;8.25;;;;;;;2.66;58.12;100692.31;3339368;29;20037;-72
2021/12/13 04:47:58;;;;;;;23.45;9.90;;;;;;;2.67;57.96;100692.19;3348353;29;20046;-72
2021/12/13 04:49:43;;;;;;;18.30;8.75;;;;;;;2.66;57.94;100692.31;3360716;29;20131;-73
2021/12/13 04:51:27;;;;;;;18.38;9.00;;;;;;;2.66;58.03;100689.69;3350499;29;20041;-72
2021/12/13 04:53:08;;;;;;;17.75;8.43;;;;;;;2.65;58.12;100688.00;3349108;29;20137;-70
2021/12/13 04:54:53;;;;;;;14.63;7.72;;;;;;;2.65;58.00;100696.75;3348229;29;20552;-72
2021/12/13 04:56:34;;;;;;;17.85;7.95;;;;;;;2.64;58.02;100692.44;3358670;29;20154;-70
2021/12/13 04:58:17;;;;;;;22.45;9.27;;;;;;;2.61;57.99;100683.00;3351759;29;20493;-72
2021/12/13 05:00:04;;;;;;;20.90;9.73;;;;;;;2.63;57.96;100690.75;3342113;29;20095;-71
2021/12/13 05:01:48;;;;;;;22.30;9.38;;;;;;;2.61;58.29;100687.44;3349177;29;20515;-76
2021/12/13 05:03:33;;;;;;;16.48;7.55;;;;;;;2.60;58.13;100680.47;3348584;29;20044;-71
2021/12/13 05:05:15;;;;;;;16.23;8.10;;;;;;;2.61;57.93;100676.91;3348694;29;20053;-72
2021/12/13 05:06:56;;;;;;;;;;;;;;;2.71;57.87;100677.00;3349226;29;20124;-71
2021/12/13 05:08:41;;;;;;;16.67;8.15;;;;;;;2.64;57.98;100662.66;3348594;29;19924;-73
2021/12/13 05:10:26;;;;;;;19.20;8.48;;;;;;;2.61;57.87;100663.75;3347735;29;20196;-74
2021/12/13 05:12:13;;;;;;;19.67;8.40;;;;;;;2.56;58.13;100658.81;3348741;29;20424;-73
2021/12/13 05:13:56;;;;;;;18.73;8.57;;;;;;;2.55;58.03;100662.41;3349183;29;20517;-72
2021/12/13 05:15:41;;;;;;;15.02;8.73;;;;;;;2.54;58.08;100660.72;3360712;29;20061;-71
2021/12/13 05:17:29;;;;;;;15.73;7.60;;;;;;;2.54;58.17;100660.72;3350763;29;20045;-75
2021/12/13 05:19:12;;;;;;;17.42;8.90;;;;;;;2.53;58.35;100659.06;3360747;29;20049;-74
2021/12/13 05:21:04;;;;;;;16.60;7.65;;;;;;;2.57;58.54;100671.00;3350795;29;20132;-74
2021/12/13 05:22:55;;;;;;;18.95;7.82;;;;;;;2.60;58.19;100670.78;3347792;29;20043;-74
2021/12/13 05:24:48;;;;;;;12.63;7.13;;;;;;;2.64;58.13;100675.81;3348696;29;20416;-74
2021/12/13 05:26:43;;;;;;;16.75;8.40;;;;;;;2.66;57.95;100671.25;3348413;29;20079;-74
2021/12/13 05:28:38;;;;;;;17.83;9.13;;;;;;;2.69;57.92;100679.78;3360627;29;20076;-75
2021/12/13 05:30:21;;;;;;;18.52;9.48;;;;;;;2.72;57.72;100681.31;3349759;29;20076;-75
2021/12/13 05:32:11;;;;;;;20.27;8.27;;;;;;;2.72;57.94;100681.31;3348669;29;20037;-74
2021/12/13 05:33:55;;;;;;;17.00;7.82;;;;;;;2.73;57.75;100675.09;3336933;29;20523;-75
2021/12/13 05:35:40;;;;;;;16.33;8.32;;;;;;;2.73;58.02;100669.81;3348766;29;20037;-73
2021/12/13 05:37:21;;;;;;;17.40;9.13;;;;;;;2.72;57.91;100673.44;3360399;29;20603;-72
2021/12/13 05:39:14;;;;;;;21.02;8.73;;;;;;;2.75;58.13;100683.72;3360581;29;20593;-75
2021/12/13 05:40:55;;;;;;;18.30;8.05;;;;;;;2.70;58.01;100667.44;3336743;29;20061;-72
2021/12/13 05:42:42;;;;;;;21.90;9.23;;;;;;;2.74;58.12;100666.25;3336354;29;20049;-71
2021/12/13 05:44:28;;;;;;;14.90;8.18;;;;;;;2.74;58.27;100667.09;3335685;29;20498;-75
2021/12/13 05:46:12;;;;;;;15.68;8.88;;;;;;;2.76;58.21;100680.09;3336762;29;20065;-70
2021/12/13 05:48:05;;;;;;;19.55;10.20;;;;;;;2.80;58.25;100676.28;3349020;29;20521;-70
2021/12/13 05:49:46;;;;;;;17.20;9.48;;;;;;;2.79;58.08;100674.63;3342091;29;20045;-67
2021/12/13 05:51:36;;;;;;;18.15;8.82;;;;;;;2.83;58.13;100676.88;3347170;29;20041;-72
2021/12/13 05:53:23;;;;;;;18.25;7.85;;;;;;;2.86;57.90;100681.06;3360523;29;20045;-70
2021/12/13 05:55:13;;;;;;;20.83;8.98;;;;;;;2.91;57.95;100689.44;3349929;29;20139;-71
2021/12/13 05:57:05;;;;;;;18.63;9.20;;;;;;;2.87;57.87;100684.56;3336956;29;20076;-70
2021/12/13 05:58:56;;;;;;;29.33;11.20;;;;;;;2.86;58.02;100688.97;3341705;29;20076;-71
2021/12/13 06:00:40;;;;;;;23.30;10.25;;;;;;;2.83;58.14;100702.38;3345707;29;20527;-71
2021/12/13 06:02:58;;;;;;;18.15;8.90;;;;;;;2.85;58.10;100692.56;3348325;29;20049;-71
2021/12/13 06:04:45;;;;;;;19.13;9.55;;;;;;;2.79;58.31;100686.00;3346877;29;20532;-71
2021/12/13 06:06:28;;;;;;;19.90;8.60;;;;;;;2.80;58.25;100689.47;3345510;29;20144;-71
2021/12/13 06:08:14;;;;;;;19.80;9.13;;;;;;;2.80;57.98;100677.13;3348592;29;20042;-71
2021/12/13 06:10:16;;;;;;;24.00;9.48;;;;;;;2.87;58.26;100687.19;3348318;29;20037;-71
2021/12/13 06:12:04;;;;;;;25.23;9.52;;;;;;;2.83;58.14;100682.16;3348647;29;20045;-71
2021/12/13 06:13:48;;;;;;;23.83;9.63;;;;;;;2.82;57.85;100671.75;3341878;29;20048;-71
2021/12/13 06:15:33;;;;;;;20.35;10.23;;;;;;;2.80;58.01;100684.19;3344212;29;20405;-71
2021/12/13 06:17:21;;;;;;;22.77;10.05;;;;;;;2.78;58.33;100671.13;3344045;29;20113;-71
2021/12/13 06:19:31;;;;;;;31.75;11.80;;;;;;;2.80;58.42;100671.03;3350522;29;20041;-71
2021/12/13 06:21:45;;;;;;;21.38;8.32;;;;;;;2.87;58.08;100671.41;3339400;29;20058;-71
2021/12/13 06:23:31;;;;;;;22.13;10.30;;;;;;;2.84;58.08;100669.84;3363016;29;20107;-72
2021/12/13 06:25:17;;;;;;;23.70;10.80;;;;;;;2.83;58.16;100671.63;3345757;29;20533;-70
2021/12/13 06:27:11;;;;;;;19.48;10.85;;;;;;;2.84;58.13;100667.22;3349548;29;20045;-71
2021/12/13 06:28:58;;;;;;;25.30;12.30;;;;;;;2.84;58.18;100667.22;3348020;29;20132;-71
2021/12/13 06:30:39;;;;;;;23.40;10.85;;;;;;;2.82;58.20;100663.84;3356999;29;20121;-73
2021/12/13 06:32:20;;;;;;;20.30;9.65;;;;;;;2.82;58.18;100658.59;3349784;29;20037;-71
2021/12/13 06:34:06;;;;;;;23.15;9.48;;;;;;;2.82;58.42;100669.13;3350726;29;20201;-71
2021/12/13 06:35:54;;;;;;;21.80;12.52;;;;;;;2.85;58.36;100668.88;3348268;29;20037;-72
2021/12/13 06:37:36;;;;;;;23.70;11.00;;;;;;;2.84;58.22;100669.84;3350294;29;20049;-73
2021/12/13 06:39:26;;;;;;;27.30;11.05;;;;;;;2.86;58.23;100670.53;3348186;29;20045;-70
2021/12/13 06:41:13;;;;;;;21.25;9.95;;;;;;;2.86;58.29;100659.19;3346055;29;20569;-71
2021/12/13 06:42:59;;;;;;;24.27;10.05;;;;;;;2.84;58.29;100669.84;3350941;29;20113;-70
2021/12/13 06:44:44;;;;;;;26.83;10.75;;;;;;;2.82;58.26;100669.13;3350186;29;20450;-76
2021/12/13 06:46:25;;;;;;;24.38;10.50;;;;;;;2.84;58.22;100664.56;3345578;29;20063;-72
2021/12/13 06:48:06;;;;;;;25.27;11.00;;;;;;;2.81;58.43;100662.16;3362215;29;20485;-75
2021/12/13 06:49:54;;;;;;;23.35;9.90;;;;;;;2.84;58.40;100672.47;3351849;29;20497;-73
2021/12/13 06:51:57;;;;;;;26.58;10.57;;;;;;;2.85;58.42;100674.13;3347254;29;20041;-73
2021/12/13 06:53:38;;;;;;;21.65;10.15;;;;;;;2.84;58.20;100672.47;3348475;29;20045;-72
2021/12/13 06:55:20;;;;;;;22.23;11.15;;;;;;;2.84;58.28;100670.69;3346476;29;20128;-71
2021/12/13 06:57:03;;;;;;;25.48;10.88;;;;;;;2.86;58.26;100670.53;3345253;29;20121;-72
2021/12/13 06:58:50;;;;;;;29.70;11.45;;;;;;;2.87;58.31;100672.22;3350391;29;20053;-72
2021/12/13 07:00:32;;;;;;;27.65;11.05;;;;;;;2.90;58.22;100671.16;3348989;29;20034;-71
2021/12/13 07:02:16;;;;;;;26.17;11.30;;;;;;;2.89;58.27;100675.59;3349922;29;20053;-72
2021/12/13 07:04:11;;;;;;;21.65;11.18;;;;;;;2.87;58.34;100672.22;3350344;29;20081;-71
2021/12/13 07:05:59;;;;;;;24.77;10.65;;;;;;;2.90;58.31;100664.09;3349230;29;20034;-71
2021/12/13 07:07:55;;;;;;;29.92;10.30;;;;;;;2.95;58.20;100664.56;3349964;29;20395;-71
2021/12/13 07:09:36;;;;;;;25.77;10.52;;;;;;;2.96;57.96;100668.84;3350144;29;20037;-71
2021/12/13 07:11:19;;;;;;;30.65;11.98;;;;;;;2.98;58.03;100669.56;3350337;29;20048;-72
2021/12/13 07:13:06;;;;;;;26.20;9.68;;;;;;;3.00;58.04;100662.41;3350029;29;20480;-71
2021/12/13 07:14:48;;;;;;;24.42;11.45;;;;;;;3.02;57.90;100671.03;3342939;29;20478;-73
2021/12/13 07:16:32;;;;;;;25.52;10.82;;;;;;;3.03;57.98;100675.31;3345654;29;20148;-72
2021/12/13 07:18:22;;;;;;;28.17;11.30;;;;;;;3.01;58.03;100671.13;3349906;29;20573;-71
2021/12/13 07:20:14;;;;;;;22.98;9.88;;;;;;;3.06;57.87;100682.97;3349936;29;20041;-72
2021/12/13 07:22:01;;;;;;;30.38;11.65;;;;;;;3.08;57.80;100676.75;3339010;29;20038;-71
2021/12/13 07:23:57;;;;;;;22.33;9.45;;;;;;;3.13;57.84;100677.22;3349773;29;20152;-71
2021/12/13 07:25:40;;;;;;;25.73;11.35;;;;;;;3.12;57.99;100675.53;3349428;29;20543;-72
2021/12/13 07:27:32;;;;;;;29.75;11.15;;;;;;;3.12;57.67;100681.63;3349760;29;20049;-72
2021/12/13 07:29:23;;;;;;;;;;;;;;;3.23;57.43;100688.72;3348972;29;20064;-71
2021/12/13 07:31:07;;;;;;;27.33;11.88;;;;;;;3.18;57.39;100690.88;3360220;29;20124;-72
2021/12/13 07:33:00;;;;;;;29.25;12.05;;;;;;;3.16;57.54;100693.63;3339143;29;20065;-71
2021/12/13 07:35:09;;;;;;;25.30;11.65;;;;;;;3.18;57.51;100696.16;3349878;29;20505;-72
2021/12/13 07:36:56;;;;;;;25.60;11.55;;;;;;;3.17;57.44;100695.28;3348645;29;20041;-72
2021/12/13 07:38:56;;;;;;;29.58;12.38;;;;;;;3.18;57.44;100698.78;3349991;29;20417;-72
2021/12/13 07:40:55;;;;;;;27.05;12.25;;;;;;;3.21;57.49;100695.91;3349286;29;20064;-71
2021/12/13 07:42:36;;;;;;;29.13;12.13;;;;;;;3.17;57.34;100700.53;3347913;29;20121;-71
2021/12/13 07:44:35;;;;;;;37.13;13.85;;;;;;;3.20;57.47;100699.47;3349311;29;20137;-72
2021/12/13 07:46:21;;;;;;;35.15;13.75;;;;;;;3.17;57.49;100702.34;3344214;29;20042;-72
2021/12/13 07:48:11;;;;;;;32.22;13.18;;;;;;;3.15;57.63;100691.97;3349422;29;20158;-72
2021/12/13 07:49:55;;;;;;;29.98;12.02;;;;;;;3.17;57.60;100699.72;3337556;29;20037;-71
2021/12/13 07:51:40;;;;;;;28.05;11.82;;;;;;;3.18;57.54;100696.16;3348701;29;20441;-72
2021/12/13 07:53:20;;;;;;;27.73;12.05;;;;;;;3.20;57.40;100697.69;3349250;29;20049;-73
2021/12/13 07:55:17;;;;;;;29.92;12.32;;;;;;;3.26;57.61;100691.09;3349783;29;20049;-72
2021/12/13 07:57:00;;;;;;;26.20;11.73;;;;;;;3.26;57.35;100696.38;3359724;29;20132;-73
2021/12/13 07:58:45;;;;;;;29.05;12.05;;;;;;;3.28;57.65;100697.09;3348004;29;20414;-74
2021/12/13 08:00:31;;;;;;;31.80;12.75;;;;;;;3.28;57.48;100697.09;3358717;29;20037;-74
2021/12/13 08:02:25;;;;;;;29.38;12.15;;;;;;;3.31;57.37;100707.38;3350942;29;20085;-72
2021/12/13 08:04:12;;;;;;;28.98;13.25;;;;;;;3.32;57.31;100698.50;3349591;29;20042;-73
2021/12/13 08:05:53;;;;;;;27.38;12.55;;;;;;;3.31;57.24;100696.84;3348766;29;20038;-72
2021/12/13 08:07:58;;;;;;;25.77;11.85;;;;;;;3.36;57.20;100699.94;3349573;29;20045;-73
2021/12/13 08:09:56;;;;;;;27.20;12.95;;;;;;;3.39;57.21;100702.31;3349170;29;20140;-73
2021/12/13 08:11:51;;;;;;;36.80;12.85;;;;;;;3.39;57.21;100702.31;3345431;29;20041;-71
2021/12/13 08:13:32;;;;;;;34.47;13.18;;;;;;;3.37;57.08;100696.34;3360682;29;20085;-71
2021/12/13 08:15:27;;;;;;;30.85;13.15;;;;;;;3.40;57.00;100697.88;3351399;29;20045;-72
2021/12/13 08:17:22;;;;;;;36.83;14.15;;;;;;;3.43;57.09;100698.50;3349197;29;20067;-71
2021/12/13 08:19:10;;;;;;;29.27;12.45;;;;;;;3.43;57.04;100706.41;3349436;29;20125;-71
2021/12/13 08:20:58;;;;;;;26.30;13.05;;;;;;;3.43;57.16;100711.66;3336192;29;20048;-72
2021/12/13 08:22:47;;;;;;;42.90;15.45;;;;;;;3.41;57.19;100703.03;3348919;29;20140;-71
2021/12/13 08:24:35;;;;;;;28.83;13.93;;;;;;;3.38;57.51;100710.34;3349577;29;20554;-72
2021/12/13 08:26:32;;;;;;;34.67;14.27;;;;;;;3.37;57.12;100703.41;3348667;29;20148;-72